Time,TemperatureF,DewpointF,PressureIn,WindDirection,WindDirectionDegrees,WindSpeedMPH,WindSpeedGustMPH,Humidity,HourlyPrecipIn,Conditions,Clouds,dailyrainin,SoftwareType,DateUTC
2013-06-22 00:02:00,64.2,62.2,30.22,NE,45,0.0,0.0,93,0.00,,,0.00,meteohub,2013-06-22 04:02:00,
2013-06-22 00:06:00,64.2,62.2,30.22,NE,45,0.0,0.0,93,0.00,,,0.00,meteohub,2013-06-22 04:06:00,
2013-06-22 00:12:00,64.4,62.4,30.21,NE,45,0.0,0.0,93,0.00,,,0.00,meteohub,2013-06-22 04:12:00,
2013-06-22 00:17:00,64.4,62.4,30.21,NE,45,0.0,0.0,93,0.00,,,0.00,meteohub,2013-06-22 04:17:00,
2013-06-22 00:22:00,64.4,62.6,30.21,East,90,2.0,0.0,94,0.00,,,0.00,meteohub,2013-06-22 04:22:00,
2013-06-22 00:24:00,64.6,62.8,30.21,East,90,2.0,0.0,94,0.00,,,0.00,meteohub,2013-06-22 04:24:00,
2013-06-22 00:30:00,64.9,63.1,30.21,ENE,68,2.0,2.0,94,0.00,,,0.00,meteohub,2013-06-22 04:30:00,
2013-06-22 00:36:00,65.8,64.4,30.21,East,90,4.0,4.0,95,0.00,,,0.00,meteohub,2013-06-22 04:36:00,
2013-06-22 00:42:00,66.7,65.5,30.21,West,270,2.0,4.0,96,0.00,,,0.00,meteohub,2013-06-22 04:42:00,
2013-06-22 00:47:00,66.9,65.7,30.21,NNW,338,2.0,5.0,96,0.00,,,0.00,meteohub,2013-06-22 04:47:00,
2013-06-22 00:52:00,67.5,66.2,30.22,NW,315,2.0,5.0,96,0.00,,,0.00,meteohub,2013-06-22 04:52:00,
2013-06-22 00:57:00,68.0,66.7,30.21,SE,135,2.0,5.0,96,0.00,,,0.00,meteohub,2013-06-22 04:57:00,
2013-06-22 01:02:00,68.2,66.9,30.22,West,270,1.0,3.0,96,0.00,,,0.00,meteohub,2013-06-22 05:02:00,
2013-06-22 01:07:00,68.2,66.9,30.21,West,270,1.0,3.0,96,0.00,,,0.00,meteohub,2013-06-22 05:07:00,
2013-06-22 01:12:00,68.7,67.3,30.21,SW,225,2.0,3.0,95,0.00,,,0.00,meteohub,2013-06-22 05:12:00,
2013-06-22 01:17:00,68.9,67.1,30.22,South,180,3.0,3.0,94,0.00,,,0.00,meteohub,2013-06-22 05:17:00,
2013-06-22 01:22:00,68.9,67.1,30.22,South,180,1.0,3.0,94,0.00,,,0.00,meteohub,2013-06-22 05:22:00,
2013-06-22 01:27:00,68.9,67.1,30.22,NW,315,1.0,3.0,94,0.00,,,0.00,meteohub,2013-06-22 05:27:00,
2013-06-22 01:32:00,68.9,67.1,30.22,North,0,2.0,3.0,94,0.00,,,0.00,meteohub,2013-06-22 05:32:00,
2013-06-22 01:37:00,69.1,67.3,30.22,NW,315,2.0,2.0,94,0.00,,,0.00,meteohub,2013-06-22 05:37:00,
2013-06-22 01:42:00,69.3,67.5,30.22,NW,315,2.0,4.0,94,0.00,,,0.00,meteohub,2013-06-22 05:42:00,
2013-06-22 01:47:00,69.4,67.6,30.22,NW,315,2.0,4.0,94,0.00,,,0.00,meteohub,2013-06-22 05:47:00,
2013-06-22 01:52:00,69.6,67.5,30.22,NNW,338,3.0,4.0,93,0.00,,,0.00,meteohub,2013-06-22 05:52:00,
2013-06-22 01:57:00,69.6,67.5,30.22,NE,45,3.0,4.0,93,0.00,,,0.00,meteohub,2013-06-22 05:57:00,
2013-06-22 02:02:00,69.6,67.5,30.22,NE,45,0.0,4.0,93,0.00,,,0.00,meteohub,2013-06-22 06:02:00,
2013-06-22 02:07:00,69.6,67.5,30.22,NW,315,1.0,3.0,93,0.00,,,0.00,meteohub,2013-06-22 06:07:00,
2013-06-22 02:12:00,69.6,67.5,30.21,NW,315,2.0,3.0,93,0.00,,,0.00,meteohub,2013-06-22 06:12:00,
2013-06-22 02:17:00,69.6,67.5,30.21,NW,315,2.0,2.0,93,0.00,,,0.00,meteohub,2013-06-22 06:17:00,
2013-06-22 02:22:00,69.8,67.6,30.21,West,270,0.0,2.0,93,0.00,,,0.00,meteohub,2013-06-22 06:22:00,
2013-06-22 02:27:00,69.6,67.3,30.21,SW,225,1.0,2.0,92,0.00,,,0.00,meteohub,2013-06-22 06:27:00,
2013-06-22 02:32:00,69.6,67.5,30.21,NE,45,2.0,2.0,93,0.00,,,0.00,meteohub,2013-06-22 06:32:00,
2013-06-22 02:37:00,69.6,67.5,30.21,NE,45,0.0,2.0,93,0.00,,,0.00,meteohub,2013-06-22 06:37:00,
2013-06-22 02:42:00,69.6,67.5,30.20,NW,315,1.0,2.0,93,0.00,,,0.00,meteohub,2013-06-22 06:42:00,
2013-06-22 02:47:00,69.6,67.5,30.20,NW,315,0.0,2.0,93,0.00,,,0.00,meteohub,2013-06-22 06:47:00,
2013-06-22 02:52:00,69.6,67.5,30.20,NW,315,0.0,1.0,93,0.00,,,0.00,meteohub,2013-06-22 06:52:00,
2013-06-22 02:57:00,69.6,67.5,30.20,West,270,1.0,2.0,93,0.00,,,0.00,meteohub,2013-06-22 06:57:00,
2013-06-22 03:02:00,69.8,67.6,30.20,West,270,1.0,2.0,93,0.00,,,0.00,meteohub,2013-06-22 07:02:00,
2013-06-22 03:07:00,69.8,67.6,30.20,West,270,1.0,2.0,93,0.00,,,0.00,meteohub,2013-06-22 07:07:00,
2013-06-22 03:12:00,69.8,67.6,30.20,West,270,1.0,2.0,93,0.00,,,0.00,meteohub,2013-06-22 07:12:00,
2013-06-22 03:17:00,69.8,67.6,30.20,West,270,2.0,2.0,93,0.00,,,0.00,meteohub,2013-06-22 07:17:00,
2013-06-22 03:22:00,69.6,67.5,30.20,West,270,1.0,2.0,93,0.00,,,0.00,meteohub,2013-06-22 07:22:00,
2013-06-22 03:27:00,69.6,67.5,30.20,West,270,0.0,2.0,93,0.00,,,0.00,meteohub,2013-06-22 07:27:00,
2013-06-22 03:32:00,69.6,67.5,30.20,West,270,0.0,2.0,93,0.00,,,0.00,meteohub,2013-06-22 07:32:00,
2013-06-22 03:37:00,69.6,67.5,30.19,West,270,1.0,1.0,93,0.00,,,0.00,meteohub,2013-06-22 07:37:00,
2013-06-22 03:42:00,69.6,67.5,30.19,West,270,0.0,1.0,93,0.00,,,0.00,meteohub,2013-06-22 07:42:00,
2013-06-22 03:47:00,69.6,67.5,30.19,West,270,0.0,1.0,93,0.00,,,0.00,meteohub,2013-06-22 07:47:00,
2013-06-22 03:52:00,69.6,67.5,30.19,West,270,0.0,1.0,93,0.00,,,0.00,meteohub,2013-06-22 07:52:00,
2013-06-22 03:57:00,69.6,67.5,30.19,West,270,0.0,0.0,93,0.00,,,0.00,meteohub,2013-06-22 07:57:00,
2013-06-22 04:05:00,69.6,67.8,30.19,West,270,0.0,0.0,94,0.00,,,0.00,meteohub,2013-06-22 08:05:00,
2013-06-22 04:11:00,69.8,68.0,30.19,SW,225,2.0,2.0,94,0.00,,,0.00,meteohub,2013-06-22 08:11:00,
2013-06-22 04:17:00,69.6,67.8,30.19,West,270,0.0,2.0,94,0.00,,,0.00,meteohub,2013-06-22 08:17:00,
2013-06-22 04:22:00,69.6,67.8,30.20,East,90,2.0,2.0,94,0.00,,,0.00,meteohub,2013-06-22 08:22:00,
2013-06-22 04:27:00,69.8,68.0,30.20,NW,315,2.0,3.0,94,0.00,,,0.00,meteohub,2013-06-22 08:27:00,
2013-06-22 04:32:00,69.8,68.0,30.20,North,0,1.0,3.0,94,0.00,,,0.00,meteohub,2013-06-22 08:32:00,
2013-06-22 04:38:00,69.8,68.0,30.20,South,180,2.0,2.0,94,0.00,,,0.00,meteohub,2013-06-22 08:38:00,
2013-06-22 04:44:00,69.6,67.8,30.20,SE,135,2.0,2.0,94,0.00,,,0.00,meteohub,2013-06-22 08:44:00,
2013-06-22 04:50:00,69.8,68.0,30.20,South,180,2.0,3.0,94,0.00,,,0.00,meteohub,2013-06-22 08:50:00,
2013-06-22 04:56:00,69.6,67.8,30.20,South,180,1.0,3.0,94,0.00,,,0.00,meteohub,2013-06-22 08:56:00,
2013-06-22 05:02:00,69.6,67.8,30.20,North,0,1.0,3.0,94,0.00,,,0.00,meteohub,2013-06-22 09:02:00,
2013-06-22 05:07:00,69.6,67.8,30.20,SE,135,2.0,3.0,94,0.00,,,0.00,meteohub,2013-06-22 09:07:00,
2013-06-22 05:12:00,69.6,67.8,30.20,North,0,0.0,3.0,94,0.00,,,0.00,meteohub,2013-06-22 09:12:00,
2013-06-22 05:17:00,69.6,67.8,30.20,North,0,0.0,2.0,94,0.00,,,0.00,meteohub,2013-06-22 09:17:00,
2013-06-22 05:22:00,69.6,67.8,30.21,West,270,2.0,2.0,94,0.00,,,0.00,meteohub,2013-06-22 09:22:00,
2013-06-22 05:27:00,69.6,67.8,30.21,West,270,1.0,2.0,94,0.00,,,0.00,meteohub,2013-06-22 09:27:00,
2013-06-22 05:32:00,69.6,67.8,30.21,East,90,2.0,2.0,94,0.00,,,0.00,meteohub,2013-06-22 09:32:00,
2013-06-22 05:37:00,69.4,67.6,30.21,West,270,2.0,2.0,94,0.00,,,0.00,meteohub,2013-06-22 09:37:00,
2013-06-22 05:42:00,69.6,67.8,30.21,SE,135,2.0,2.0,94,0.00,,,0.00,meteohub,2013-06-22 09:42:00,
2013-06-22 05:47:00,69.4,67.6,30.21,SE,135,0.0,2.0,94,0.00,,,0.00,meteohub,2013-06-22 09:47:00,
2013-06-22 05:52:00,69.4,67.6,30.22,NE,45,2.0,2.0,94,0.00,,,0.00,meteohub,2013-06-22 09:52:00,
2013-06-22 05:57:00,69.4,67.6,30.21,North,0,2.0,3.0,94,0.00,,,0.00,meteohub,2013-06-22 09:57:00,
2013-06-22 06:02:00,69.4,67.6,30.21,North,0,0.0,3.0,94,0.00,,,0.00,meteohub,2013-06-22 10:02:00,
2013-06-22 06:07:00,69.4,68.0,30.22,North,0,1.0,3.0,95,0.00,,,0.00,meteohub,2013-06-22 10:07:00,
2013-06-22 06:12:00,69.4,68.0,30.22,West,270,2.0,2.0,95,0.00,,,0.00,meteohub,2013-06-22 10:12:00,
2013-06-22 06:17:00,69.4,68.0,30.22,South,180,4.0,4.0,95,0.00,,,0.00,meteohub,2013-06-22 10:17:00,
2013-06-22 06:22:00,69.4,68.0,30.22,West,270,2.0,4.0,95,0.00,,,0.00,meteohub,2013-06-22 10:22:00,
2013-06-22 06:27:00,69.4,68.0,30.22,South,180,2.0,4.0,95,0.00,,,0.00,meteohub,2013-06-22 10:27:00,
2013-06-22 06:32:00,69.4,68.0,30.22,NNW,338,4.0,4.0,95,0.00,,,0.00,meteohub,2013-06-22 10:32:00,
2013-06-22 06:37:00,69.3,67.8,30.22,East,90,4.0,4.0,95,0.00,,,0.00,meteohub,2013-06-22 10:37:00,
2013-06-22 06:42:00,69.4,67.6,30.22,East,90,1.0,4.0,94,0.00,,,0.00,meteohub,2013-06-22 10:42:00,
2013-06-22 06:47:00,69.4,68.0,30.22,West,270,2.0,4.0,95,0.00,,,0.00,meteohub,2013-06-22 10:47:00,
2013-06-22 06:52:00,69.3,67.8,30.22,West,270,1.0,4.0,95,0.00,,,0.00,meteohub,2013-06-22 10:52:00,
2013-06-22 06:57:00,69.3,67.5,30.22,NE,45,2.0,4.0,94,0.00,,,0.00,meteohub,2013-06-22 10:57:00,
2013-06-22 07:02:00,69.3,67.5,30.22,West,270,2.0,4.0,94,0.00,,,0.00,meteohub,2013-06-22 11:02:00,
2013-06-22 07:09:00,69.3,67.5,30.22,South,180,2.0,2.0,94,0.00,,,0.00,meteohub,2013-06-22 11:09:00,
2013-06-22 07:15:00,69.3,67.5,30.22,North,0,1.0,4.0,94,0.00,,,0.00,meteohub,2013-06-22 11:15:00,
2013-06-22 07:21:00,69.3,67.5,30.22,North,0,1.0,4.0,94,0.00,,,0.00,meteohub,2013-06-22 11:21:00,
2013-06-22 07:27:00,69.3,67.8,30.22,North,0,2.0,4.0,95,0.00,,,0.00,meteohub,2013-06-22 11:27:00,
2013-06-22 07:32:00,69.3,67.5,30.22,SE,135,2.0,4.0,94,0.00,,,0.00,meteohub,2013-06-22 11:32:00,
2013-06-22 07:37:00,69.3,67.5,30.22,NNW,338,2.0,4.0,94,0.00,,,0.00,meteohub,2013-06-22 11:37:00,
2013-06-22 07:42:00,69.4,68.0,30.22,East,90,2.0,2.0,95,0.00,,,0.00,meteohub,2013-06-22 11:42:00,
2013-06-22 07:48:00,69.4,67.6,30.22,West,270,4.0,4.0,94,0.00,,,0.00,meteohub,2013-06-22 11:48:00,
2013-06-22 07:54:00,69.4,68.0,30.22,NW,315,2.0,3.0,95,0.00,,,0.00,meteohub,2013-06-22 11:54:00,
2013-06-22 08:00:00,69.4,68.0,30.22,SE,135,2.0,5.0,95,0.00,,,0.00,meteohub,2013-06-22 12:00:00,
2013-06-22 08:06:00,69.6,68.2,30.22,West,270,2.0,5.0,95,0.00,,,0.00,meteohub,2013-06-22 12:06:00,
2013-06-22 08:12:00,69.6,67.8,30.22,North,0,2.0,5.0,94,0.00,,,0.00,meteohub,2013-06-22 12:12:00,
2013-06-22 08:17:00,70.0,68.2,30.22,NNE,23,1.0,4.0,94,0.00,,,0.00,meteohub,2013-06-22 12:17:00,
2013-06-22 08:22:00,70.2,68.4,30.22,West,270,4.0,4.0,94,0.00,,,0.00,meteohub,2013-06-22 12:22:00,
2013-06-22 08:27:00,70.3,68.5,30.22,East,90,2.0,4.0,94,0.00,,,0.00,meteohub,2013-06-22 12:27:00,
2013-06-22 08:32:00,70.3,68.2,30.22,North,0,2.0,4.0,93,0.00,,,0.00,meteohub,2013-06-22 12:32:00,
2013-06-22 08:37:00,70.3,68.2,30.22,East,90,3.0,4.0,93,0.00,,,0.00,meteohub,2013-06-22 12:37:00,
2013-06-22 08:42:00,70.3,68.2,30.22,North,0,2.0,4.0,93,0.00,,,0.00,meteohub,2013-06-22 12:42:00,
2013-06-22 08:47:00,70.3,68.2,30.22,South,180,2.0,4.0,93,0.00,,,0.00,meteohub,2013-06-22 12:47:00,
2013-06-22 08:52:00,70.3,68.2,30.22,NNE,23,1.0,4.0,93,0.00,,,0.00,meteohub,2013-06-22 12:52:00,
2013-06-22 08:57:00,70.3,68.2,30.22,SW,225,3.0,4.0,93,0.00,,,0.00,meteohub,2013-06-22 12:57:00,
2013-06-22 09:02:00,70.3,67.8,30.22,North,0,2.0,3.0,92,0.00,,,0.00,meteohub,2013-06-22 13:02:00,
2013-06-22 09:07:00,70.2,68.0,30.22,SW,225,2.0,3.0,93,0.00,,,0.00,meteohub,2013-06-22 13:07:00,
2013-06-22 09:12:00,70.2,68.0,30.22,South,180,3.0,3.0,93,0.00,,,0.00,meteohub,2013-06-22 13:12:00,
2013-06-22 09:17:00,70.3,68.2,30.22,SE,135,4.0,4.0,93,0.00,,,0.00,meteohub,2013-06-22 13:17:00,
2013-06-22 09:22:00,70.5,68.4,30.22,West,270,1.0,4.0,93,0.00,,,0.00,meteohub,2013-06-22 13:22:00,
2013-06-22 09:27:00,70.7,68.2,30.22,East,90,2.0,4.0,92,0.00,,,0.00,meteohub,2013-06-22 13:27:00,
2013-06-22 09:32:00,71.1,68.5,30.21,NE,45,2.0,4.0,92,0.00,,,0.00,meteohub,2013-06-22 13:32:00,
2013-06-22 09:37:00,71.1,68.4,30.22,WNW,293,1.0,5.0,91,0.00,,,0.00,meteohub,2013-06-22 13:37:00,
2013-06-22 09:42:00,71.4,68.7,30.22,NW,315,3.0,5.0,91,0.00,,,0.00,meteohub,2013-06-22 13:42:00,
2013-06-22 09:47:00,71.4,68.7,30.22,North,0,2.0,5.0,91,0.00,,,0.00,meteohub,2013-06-22 13:47:00,
2013-06-22 09:52:00,71.6,68.5,30.22,South,180,3.0,4.0,90,0.00,,,0.00,meteohub,2013-06-22 13:52:00,
2013-06-22 09:57:00,71.6,68.5,30.22,SW,225,1.0,4.0,90,0.00,,,0.00,meteohub,2013-06-22 13:57:00,
2013-06-22 10:02:00,71.8,68.7,30.22,North,0,2.0,4.0,90,0.00,,,0.00,meteohub,2013-06-22 14:02:00,
2013-06-22 10:07:00,72.1,69.1,30.21,North,0,2.0,4.0,90,0.00,,,0.00,meteohub,2013-06-22 14:07:00,
2013-06-22 10:12:00,72.5,69.1,30.21,South,180,4.0,4.0,89,0.00,,,0.00,meteohub,2013-06-22 14:12:00,
2013-06-22 10:17:00,72.5,68.7,30.21,SW,225,2.0,4.0,88,0.00,,,0.00,meteohub,2013-06-22 14:17:00,
2013-06-22 10:22:00,72.5,68.7,30.21,NW,315,2.0,4.0,88,0.00,,,0.00,meteohub,2013-06-22 14:22:00,
2013-06-22 10:27:00,72.9,69.1,30.21,SW,225,2.0,4.0,88,0.00,,,0.00,meteohub,2013-06-22 14:27:00,
2013-06-22 10:32:00,73.4,69.3,30.21,SW,225,7.0,7.0,87,0.00,,,0.00,meteohub,2013-06-22 14:32:00,
2013-06-22 10:37:00,73.6,69.4,30.21,North,0,2.0,7.0,87,0.00,,,0.00,meteohub,2013-06-22 14:37:00,
2013-06-22 10:42:00,73.9,69.8,30.21,NW,315,2.0,7.0,87,0.00,,,0.00,meteohub,2013-06-22 14:42:00,
2013-06-22 10:47:00,74.1,69.6,30.20,NE,45,2.0,7.0,86,0.00,,,0.00,meteohub,2013-06-22 14:47:00,
2013-06-22 10:52:00,74.3,69.4,30.21,NW,315,2.0,3.0,85,0.00,,,0.00,meteohub,2013-06-22 14:52:00,
2013-06-22 10:57:00,74.1,69.3,30.21,NNW,338,4.0,4.0,85,0.00,,,0.00,meteohub,2013-06-22 14:57:00,
2013-06-22 11:02:00,73.9,69.1,30.22,SW,225,2.0,4.0,85,0.00,,,0.00,meteohub,2013-06-22 15:02:00,
2013-06-22 11:07:00,74.1,69.3,30.21,SW,225,2.0,4.0,85,0.00,,,0.00,meteohub,2013-06-22 15:07:00,
2013-06-22 11:14:00,74.8,70.0,30.21,South,180,2.0,4.0,85,0.00,,,0.00,meteohub,2013-06-22 15:14:00,
2013-06-22 11:20:00,75.4,70.2,30.22,North,0,3.0,4.0,84,0.00,,,0.00,meteohub,2013-06-22 15:20:00,
2013-06-22 11:26:00,75.7,70.2,30.22,NE,45,2.0,4.0,83,0.00,,,0.00,meteohub,2013-06-22 15:26:00,
2013-06-22 11:32:00,76.1,69.8,30.22,SE,135,4.0,4.0,81,0.00,,,0.00,meteohub,2013-06-22 15:32:00,
2013-06-22 11:37:00,75.9,69.6,30.22,SW,225,2.0,4.0,81,0.00,,,0.00,meteohub,2013-06-22 15:37:00,
2013-06-22 11:42:00,76.1,69.8,30.22,West,270,2.0,4.0,81,0.00,,,0.00,meteohub,2013-06-22 15:42:00,
2013-06-22 11:47:00,76.3,70.0,30.22,North,0,3.0,4.0,81,0.00,,,0.00,meteohub,2013-06-22 15:47:00,
2013-06-22 11:52:00,76.6,70.3,30.21,NW,315,4.0,4.0,81,0.00,,,0.00,meteohub,2013-06-22 15:52:00,
2013-06-22 11:57:00,77.9,71.6,30.21,North,0,4.0,5.0,81,0.00,,,0.00,meteohub,2013-06-22 15:57:00,
2013-06-22 12:02:00,79.2,71.2,30.21,West,270,5.0,5.0,77,0.00,,,0.00,meteohub,2013-06-22 16:02:00,
2013-06-22 12:07:00,79.5,70.2,30.21,SE,135,3.0,5.0,73,0.00,,,0.00,meteohub,2013-06-22 16:07:00,
2013-06-22 12:12:00,78.6,69.6,30.21,NW,315,4.0,5.0,74,0.00,,,0.00,meteohub,2013-06-22 16:12:00,
2013-06-22 12:17:00,78.1,69.4,30.21,NW,315,2.0,5.0,75,0.00,,,0.00,meteohub,2013-06-22 16:17:00,
2013-06-22 12:22:00,78.6,70.0,30.21,SW,225,6.0,6.0,75,0.00,,,0.00,meteohub,2013-06-22 16:22:00,
2013-06-22 12:27:00,79.2,71.2,30.21,NW,315,2.0,6.0,77,0.00,,,0.00,meteohub,2013-06-22 16:27:00,
2013-06-22 12:32:00,79.2,69.8,30.21,NW,315,4.0,6.0,73,0.00,,,0.00,meteohub,2013-06-22 16:32:00,
2013-06-22 12:37:00,79.0,70.0,30.21,East,90,2.0,7.0,74,0.00,,,0.00,meteohub,2013-06-22 16:37:00,
2013-06-22 12:42:00,78.8,69.8,30.21,East,90,2.0,7.0,74,0.00,,,0.00,meteohub,2013-06-22 16:42:00,
2013-06-22 12:47:00,79.7,71.8,30.21,North,0,2.0,7.0,77,0.00,,,0.00,meteohub,2013-06-22 16:47:00,
2013-06-22 12:52:00,80.1,71.1,30.21,SW,225,3.0,4.0,74,0.00,,,0.00,meteohub,2013-06-22 16:52:00,
2013-06-22 12:57:00,80.2,70.0,30.21,East,90,2.0,4.0,71,0.00,,,0.00,meteohub,2013-06-22 16:57:00,
2013-06-22 13:02:00,80.2,69.6,30.20,NNE,23,2.0,4.0,70,0.00,,,0.00,meteohub,2013-06-22 17:02:00,
2013-06-22 13:07:00,80.2,70.0,30.20,East,90,1.0,4.0,71,0.00,,,0.00,meteohub,2013-06-22 17:07:00,
2013-06-22 13:12:00,80.4,70.5,30.20,East,90,2.0,4.0,72,0.00,,,0.00,meteohub,2013-06-22 17:12:00,
2013-06-22 13:17:00,80.2,70.9,30.20,East,90,2.0,4.0,73,0.00,,,0.00,meteohub,2013-06-22 17:17:00,
2013-06-22 13:22:00,79.7,69.8,30.20,West,270,4.0,4.0,72,0.00,,,0.00,meteohub,2013-06-22 17:22:00,
2013-06-22 13:27:00,80.1,70.7,30.19,NE,45,2.0,8.0,73,0.00,,,0.00,meteohub,2013-06-22 17:27:00,
2013-06-22 13:32:00,80.6,70.7,30.19,West,270,2.0,8.0,72,0.00,,,0.00,meteohub,2013-06-22 17:32:00,
2013-06-22 13:37:00,80.8,71.2,30.19,NW,315,3.0,8.0,73,0.00,,,0.00,meteohub,2013-06-22 17:37:00,
2013-06-22 13:44:00,81.0,71.4,30.19,South,180,2.0,4.0,73,0.00,,,0.00,meteohub,2013-06-22 17:44:00,
2013-06-22 13:51:00,81.5,72.0,30.18,South,180,4.0,4.0,73,0.00,,,0.00,meteohub,2013-06-22 17:51:00,
2013-06-22 13:57:00,82.0,70.3,30.18,NW,315,4.0,5.0,68,0.00,,,0.00,meteohub,2013-06-22 17:57:00,
2013-06-22 14:02:00,83.3,70.7,30.18,South,180,4.0,5.0,66,0.00,,,0.00,meteohub,2013-06-22 18:02:00,
2013-06-22 14:07:00,83.3,70.3,30.17,NW,315,4.0,5.0,65,0.00,,,0.00,meteohub,2013-06-22 18:07:00,
2013-06-22 14:12:00,83.5,70.5,30.17,NW,315,2.0,4.0,65,0.00,,,0.00,meteohub,2013-06-22 18:12:00,
2013-06-22 14:17:00,83.7,70.2,30.17,West,270,4.0,4.0,64,0.00,,,0.00,meteohub,2013-06-22 18:17:00,
2013-06-22 14:22:00,83.1,69.3,30.18,North,0,2.0,5.0,63,0.00,,,0.00,meteohub,2013-06-22 18:22:00,
2013-06-22 14:27:00,83.3,70.3,30.18,North,0,4.0,5.0,65,0.00,,,0.00,meteohub,2013-06-22 18:27:00,
2013-06-22 14:32:00,83.8,70.9,30.17,North,0,3.0,6.0,65,0.00,,,0.00,meteohub,2013-06-22 18:32:00,
2013-06-22 14:37:00,84.2,70.7,30.17,NNW,338,3.0,6.0,64,0.00,,,0.00,meteohub,2013-06-22 18:37:00,
2013-06-22 14:42:00,83.5,68.5,30.17,SW,225,4.0,5.0,61,0.00,,,0.00,meteohub,2013-06-22 18:42:00,
2013-06-22 14:48:00,83.3,70.3,30.17,NW,315,2.0,5.0,65,0.00,,,0.00,meteohub,2013-06-22 18:48:00,
2013-06-22 14:54:00,83.8,70.3,30.17,NNW,338,6.0,6.0,64,0.00,,,0.00,meteohub,2013-06-22 18:54:00,
2013-06-22 15:00:00,83.8,70.0,30.17,NW,315,4.0,6.0,63,0.00,,,0.00,meteohub,2013-06-22 19:00:00,
2013-06-22 15:06:00,83.5,71.4,30.17,NW,315,2.0,6.0,67,0.00,,,0.00,meteohub,2013-06-22 19:06:00,
2013-06-22 15:12:00,82.6,70.0,30.16,SW,225,1.0,4.0,66,0.00,,,0.00,meteohub,2013-06-22 19:12:00,
2013-06-22 15:17:00,82.0,70.9,30.16,North,0,2.0,4.0,69,0.00,,,0.00,meteohub,2013-06-22 19:17:00,
2013-06-22 15:22:00,82.2,71.1,30.16,North,0,4.0,4.0,69,0.00,,,0.00,meteohub,2013-06-22 19:22:00,
2013-06-22 15:27:00,82.8,71.6,30.16,East,90,3.0,4.0,69,0.00,,,0.00,meteohub,2013-06-22 19:27:00,
2013-06-22 15:32:00,82.8,69.8,30.16,West,270,3.0,4.0,65,0.00,,,0.00,meteohub,2013-06-22 19:32:00,
2013-06-22 15:37:00,82.4,70.0,30.15,West,270,3.0,4.0,66,0.00,,,0.00,meteohub,2013-06-22 19:37:00,
2013-06-22 15:42:00,82.6,70.0,30.14,NW,315,2.0,6.0,66,0.00,,,0.00,meteohub,2013-06-22 19:42:00,
2013-06-22 15:47:00,83.3,71.2,30.15,NW,315,3.0,6.0,67,0.00,,,0.00,meteohub,2013-06-22 19:47:00,
2013-06-22 15:52:00,84.0,70.5,30.15,North,0,8.0,8.0,64,0.00,,,0.00,meteohub,2013-06-22 19:52:00,
2013-06-22 15:57:00,83.8,70.0,30.15,West,270,2.0,8.0,63,0.00,,,0.00,meteohub,2013-06-22 19:57:00,
2013-06-22 16:02:00,84.2,71.2,30.14,SW,225,2.0,8.0,65,0.00,,,0.00,meteohub,2013-06-22 20:02:00,
2013-06-22 16:07:00,84.7,70.3,30.14,SE,135,4.0,8.0,62,0.00,,,0.00,meteohub,2013-06-22 20:07:00,
2013-06-22 16:12:00,84.6,70.2,30.14,NE,45,4.0,8.0,62,0.00,,,0.00,meteohub,2013-06-22 20:12:00,
2013-06-22 16:17:00,84.2,70.2,30.14,NW,315,2.0,8.0,63,0.00,,,0.00,meteohub,2013-06-22 20:17:00,
2013-06-22 16:22:00,84.4,70.0,30.14,North,0,3.0,8.0,62,0.00,,,0.00,meteohub,2013-06-22 20:22:00,
2013-06-22 16:27:00,84.7,71.2,30.14,South,180,2.0,6.0,64,0.00,,,0.00,meteohub,2013-06-22 20:27:00,
2013-06-22 16:32:00,82.9,67.1,30.14,North,0,4.0,6.0,59,0.00,,,0.00,meteohub,2013-06-22 20:32:00,
2013-06-22 16:37:00,81.7,67.5,30.14,South,180,2.0,6.0,62,0.00,,,0.00,meteohub,2013-06-22 20:37:00,
2013-06-22 16:42:00,81.3,68.4,30.14,West,270,3.0,5.0,65,0.00,,,0.00,meteohub,2013-06-22 20:42:00,
2013-06-22 16:47:00,81.0,68.9,30.14,NW,315,3.0,5.0,67,0.00,,,0.00,meteohub,2013-06-22 20:47:00,
2013-06-22 16:52:00,80.8,70.2,30.14,NNE,23,2.0,5.0,70,0.00,,,0.00,meteohub,2013-06-22 20:52:00,
2013-06-22 16:57:00,80.2,70.0,30.14,SE,135,4.0,5.0,71,0.00,,,0.00,meteohub,2013-06-22 20:57:00,
2013-06-22 17:02:00,79.9,70.0,30.14,SW,225,6.0,8.0,72,0.00,,,0.00,meteohub,2013-06-22 21:02:00,
2013-06-22 17:07:00,79.5,68.9,30.14,West,270,5.0,8.0,70,0.00,,,0.00,meteohub,2013-06-22 21:07:00,
2013-06-22 17:12:00,79.2,68.2,30.14,SW,225,4.0,9.0,69,0.00,,,0.00,meteohub,2013-06-22 21:12:00,
2013-06-22 17:17:00,79.2,69.3,30.14,West,270,4.0,9.0,72,0.00,,,0.00,meteohub,2013-06-22 21:17:00,
2013-06-22 17:22:00,78.8,67.8,30.14,SW,225,5.0,9.0,69,0.00,,,0.00,meteohub,2013-06-22 21:22:00,
2013-06-22 17:28:00,78.3,68.0,30.14,North,0,4.0,5.0,71,0.00,,,0.00,meteohub,2013-06-22 21:28:00,
2013-06-22 17:34:00,77.9,68.5,30.14,East,90,2.0,8.0,73,0.00,,,0.00,meteohub,2013-06-22 21:34:00,
2013-06-22 17:40:00,77.7,68.7,30.14,SW,225,6.0,8.0,74,0.00,,,0.00,meteohub,2013-06-22 21:40:00,
2013-06-22 17:46:00,77.4,68.9,30.14,West,270,5.0,8.0,75,0.00,,,0.00,meteohub,2013-06-22 21:46:00,
2013-06-22 17:52:00,77.5,69.4,30.14,West,270,2.0,8.0,76,0.00,,,0.00,meteohub,2013-06-22 21:52:00,
2013-06-22 17:57:00,77.5,69.4,30.14,North,0,4.0,6.0,76,0.00,,,0.00,meteohub,2013-06-22 21:57:00,
2013-06-22 18:02:00,77.4,68.9,30.14,NW,315,2.0,6.0,75,0.00,,,0.00,meteohub,2013-06-22 22:02:00,
2013-06-22 18:07:00,76.6,68.5,30.14,West,270,2.0,6.0,76,0.00,,,0.00,meteohub,2013-06-22 22:07:00,
2013-06-22 18:12:00,76.6,68.9,30.14,SE,135,2.0,4.0,77,0.00,,,0.00,meteohub,2013-06-22 22:12:00,
2013-06-22 18:17:00,76.3,68.9,30.14,North,0,2.0,4.0,78,0.00,,,0.00,meteohub,2013-06-22 22:17:00,
2013-06-22 18:22:00,76.1,69.1,30.14,South,180,2.0,4.0,79,0.00,,,0.00,meteohub,2013-06-22 22:22:00,
2013-06-22 18:27:00,76.1,69.1,30.13,North,0,2.0,4.0,79,0.00,,,0.00,meteohub,2013-06-22 22:27:00,
2013-06-22 18:32:00,76.1,69.1,30.13,NW,315,2.0,5.0,79,0.00,,,0.00,meteohub,2013-06-22 22:32:00,
2013-06-22 18:37:00,76.1,69.8,30.13,West,270,2.0,5.0,81,0.00,,,0.00,meteohub,2013-06-22 22:37:00,
2013-06-22 18:42:00,76.1,69.8,30.13,West,270,1.0,5.0,81,0.00,,,0.00,meteohub,2013-06-22 22:42:00,
2013-06-22 18:47:00,76.3,70.3,30.12,West,270,4.0,4.0,82,0.00,,,0.00,meteohub,2013-06-22 22:47:00,
2013-06-22 18:52:00,75.9,69.6,30.13,West,270,2.0,4.0,81,0.00,,,0.00,meteohub,2013-06-22 22:52:00,
2013-06-22 18:57:00,75.7,69.4,30.13,North,0,2.0,4.0,81,0.00,,,0.00,meteohub,2013-06-22 22:57:00,
2013-06-22 19:02:00,75.6,69.3,30.13,South,180,2.0,4.0,81,0.00,,,0.00,meteohub,2013-06-22 23:02:00,
2013-06-22 19:07:00,75.4,69.4,30.14,South,180,2.0,4.0,82,0.00,,,0.00,meteohub,2013-06-22 23:07:00,
2013-06-22 19:12:00,75.2,69.3,30.13,North,0,2.0,4.0,82,0.00,,,0.00,meteohub,2013-06-22 23:12:00,
2013-06-22 19:17:00,74.8,68.9,30.13,NW,315,2.0,4.0,82,0.00,,,0.00,meteohub,2013-06-22 23:17:00,
2013-06-22 19:22:00,74.7,68.7,30.14,NW,315,2.0,4.0,82,0.00,,,0.00,meteohub,2013-06-22 23:22:00,
2013-06-22 19:27:00,74.5,68.9,30.14,NW,315,1.0,4.0,83,0.00,,,0.00,meteohub,2013-06-22 23:27:00,
2013-06-22 19:32:00,74.1,68.5,30.14,East,90,6.0,7.0,83,0.00,,,0.00,meteohub,2013-06-22 23:32:00,
2013-06-22 19:37:00,73.9,68.4,30.14,East,90,2.0,7.0,83,0.00,,,0.00,meteohub,2013-06-22 23:37:00,
2013-06-22 19:42:00,73.8,68.5,30.14,NE,45,2.0,7.0,84,0.00,,,0.00,meteohub,2013-06-22 23:42:00,
2013-06-22 19:47:00,73.6,68.4,30.14,West,270,2.0,7.0,84,0.00,,,0.00,meteohub,2013-06-22 23:47:00,
2013-06-22 19:52:00,73.4,68.5,30.14,South,180,3.0,5.0,85,0.00,,,0.00,meteohub,2013-06-22 23:52:00,
2013-06-22 19:57:00,73.4,68.5,30.13,South,180,2.0,5.0,85,0.00,,,0.00,meteohub,2013-06-22 23:57:00,
2013-06-22 20:02:00,73.2,68.4,30.13,NW,315,1.0,5.0,85,0.00,,,0.00,meteohub,2013-06-23 00:02:00,
2013-06-22 20:07:00,73.2,68.7,30.13,East,90,3.0,5.0,86,0.00,,,0.00,meteohub,2013-06-23 00:07:00,
2013-06-22 20:12:00,73.2,68.7,30.13,NW,315,4.0,5.0,86,0.00,,,0.00,meteohub,2013-06-23 00:12:00,
2013-06-22 20:17:00,73.0,68.9,30.13,NW,315,2.0,4.0,87,0.00,,,0.00,meteohub,2013-06-23 00:17:00,
2013-06-22 20:22:00,72.9,68.4,30.13,NW,315,2.0,4.0,86,0.00,,,0.00,meteohub,2013-06-23 00:22:00,
2013-06-22 20:29:00,72.7,68.5,30.13,NW,315,2.0,4.0,87,0.00,,,0.00,meteohub,2013-06-23 00:29:00,
2013-06-22 20:35:00,72.5,68.4,30.13,NW,315,2.0,2.0,87,0.00,,,0.00,meteohub,2013-06-23 00:35:00,
2013-06-22 20:42:00,72.3,68.2,30.13,NW,315,1.0,2.0,87,0.00,,,0.00,meteohub,2013-06-23 00:42:00,
2013-06-22 20:47:00,72.3,68.5,30.13,NW,315,2.0,2.0,88,0.00,,,0.00,meteohub,2013-06-23 00:47:00,
2013-06-22 20:54:00,72.1,68.4,30.13,NW,315,1.0,2.0,88,0.00,,,0.00,meteohub,2013-06-23 00:54:00,
2013-06-22 21:00:00,72.1,68.4,30.13,NW,315,1.0,2.0,88,0.00,,,0.00,meteohub,2013-06-23 01:00:00,
2013-06-22 21:06:00,72.0,68.5,30.13,NW,315,1.0,2.0,89,0.00,,,0.00,meteohub,2013-06-23 01:06:00,
2013-06-22 21:12:00,72.0,68.5,30.13,NW,315,1.0,2.0,89,0.00,,,0.00,meteohub,2013-06-23 01:12:00,
2013-06-22 21:17:00,72.0,68.5,30.13,NW,315,2.0,2.0,89,0.00,,,0.00,meteohub,2013-06-23 01:17:00,
2013-06-22 21:22:00,72.0,68.5,30.13,NW,315,2.0,2.0,89,0.00,,,0.00,meteohub,2013-06-23 01:22:00,
2013-06-22 21:27:00,72.0,68.5,30.13,NW,315,2.0,2.0,89,0.00,,,0.00,meteohub,2013-06-23 01:27:00,
2013-06-22 21:32:00,72.0,68.5,30.13,NW,315,8.0,8.0,89,0.00,,,0.00,meteohub,2013-06-23 01:32:00,
2013-06-22 21:37:00,72.0,68.5,30.14,West,270,1.0,8.0,89,0.00,,,0.00,meteohub,2013-06-23 01:37:00,
2013-06-22 21:42:00,72.0,68.5,30.14,West,270,2.0,8.0,89,0.00,,,0.00,meteohub,2013-06-23 01:42:00,
2013-06-22 21:47:00,71.8,68.4,30.14,West,270,2.0,8.0,89,0.00,,,0.00,meteohub,2013-06-23 01:47:00,
2013-06-22 21:52:00,71.8,68.4,30.14,West,270,1.0,2.0,89,0.00,,,0.00,meteohub,2013-06-23 01:52:00,
2013-06-22 21:57:00,71.8,68.4,30.14,West,270,0.0,2.0,89,0.00,,,0.00,meteohub,2013-06-23 01:57:00,
2013-06-22 22:02:00,71.8,68.4,30.14,West,270,0.0,2.0,89,0.00,,,0.00,meteohub,2013-06-23 02:02:00,
2013-06-22 22:07:00,71.6,68.5,30.14,West,270,0.0,1.0,90,0.00,,,0.00,meteohub,2013-06-23 02:07:00,
2013-06-22 22:12:00,71.6,68.5,30.14,West,270,0.0,1.0,90,0.00,,,0.00,meteohub,2013-06-23 02:12:00,
2013-06-22 22:17:00,71.4,68.4,30.14,West,270,2.0,2.0,90,0.00,,,0.00,meteohub,2013-06-23 02:17:00,
2013-06-22 22:22:00,71.4,68.7,30.14,West,270,1.0,2.0,91,0.00,,,0.00,meteohub,2013-06-23 02:22:00,
2013-06-22 22:27:00,71.2,68.5,30.14,West,270,0.0,2.0,91,0.00,,,0.00,meteohub,2013-06-23 02:27:00,
2013-06-22 22:32:00,71.2,68.5,30.14,West,270,1.0,2.0,91,0.00,,,0.00,meteohub,2013-06-23 02:32:00,
2013-06-22 22:37:00,71.1,68.5,30.14,West,270,0.0,2.0,92,0.00,,,0.00,meteohub,2013-06-23 02:37:00,
2013-06-22 22:42:00,71.1,68.5,30.14,West,270,0.0,2.0,92,0.00,,,0.00,meteohub,2013-06-23 02:42:00,
2013-06-22 22:47:00,70.9,68.4,30.14,West,270,2.0,2.0,92,0.00,,,0.00,meteohub,2013-06-23 02:47:00,
2013-06-22 22:52:00,70.9,68.7,30.14,West,270,2.0,2.0,93,0.00,,,0.00,meteohub,2013-06-23 02:52:00,
2013-06-22 22:57:00,70.7,68.5,30.14,West,270,2.0,2.0,93,0.00,,,0.00,meteohub,2013-06-23 02:57:00,
2013-06-22 23:02:00,70.7,68.5,30.15,West,270,1.0,2.0,93,0.00,,,0.00,meteohub,2013-06-23 03:02:00,
2013-06-22 23:07:00,70.7,68.5,30.14,West,270,1.0,2.0,93,0.00,,,0.00,meteohub,2013-06-23 03:07:00,
2013-06-22 23:12:00,70.5,68.7,30.14,West,270,1.0,2.0,94,0.00,,,0.00,meteohub,2013-06-23 03:12:00,
2013-06-22 23:17:00,70.5,68.7,30.14,West,270,0.0,2.0,94,0.00,,,0.00,meteohub,2013-06-23 03:17:00,
2013-06-22 23:22:00,70.5,68.7,30.15,West,270,0.0,1.0,94,0.00,,,0.00,meteohub,2013-06-23 03:22:00,
2013-06-22 23:27:00,70.3,68.5,30.15,West,270,0.0,1.0,94,0.00,,,0.00,meteohub,2013-06-23 03:27:00,
2013-06-22 23:32:00,70.3,68.5,30.15,West,270,0.0,1.0,94,0.00,,,0.00,meteohub,2013-06-23 03:32:00,
2013-06-22 23:37:00,70.3,68.5,30.15,West,270,1.0,1.0,94,0.00,,,0.00,meteohub,2013-06-23 03:37:00,
2013-06-22 23:42:00,70.3,68.9,30.15,West,270,0.0,2.0,95,0.00,,,0.00,meteohub,2013-06-23 03:42:00,
2013-06-22 23:47:00,70.3,68.9,30.14,West,270,1.0,2.0,95,0.00,,,0.00,meteohub,2013-06-23 03:47:00,
2013-06-22 23:52:00,70.3,68.9,30.15,West,270,1.0,2.0,95,0.00,,,0.00,meteohub,2013-06-23 03:52:00,
2013-06-22 23:57:00,70.3,68.9,30.16,West,270,0.0,2.0,95,0.00,,,0.00,meteohub,2013-06-23 03:57:00,